D Hanis, Texas
Current Conditions -  °F | °C
As of 12:51 PM on Friday 24 Oct 2014 (Local Time) from KHDO Reporting Station
Clear Clear  
Wind Chill: 78°   Ceiling: Unl
Heat Index: 79°   Visibility: 10mi
Dew Point: 59°   Wind: 5mph
Humidity: 52%   Direction: 220°SW
Pressure: 30.19"   Gusts: NA
Location:  29.3507°N, 99.3117°W
Report Text: KHDO 241751Z AUTO 22004KT 10SM CLR 26/15 A3019 RMK AO2 SLP212 T02560150 10261 20117 58004
Loading
Personal Weather Stations






























Interactive Weather Map
Tropical Storm Tracking
New forecast layout! Learn more

10-Day Weather Forecast

Advertisements
Track Severe Weather on mobile